sensor_id;sensor_type;location;lat;lon;timestamp;temperature;humidity
78876;DHT22;68253;52.506;5.486;2023-09-18T00:00:48;18.20;78.90
78876;DHT22;68253;52.506;5.486;2023-09-18T00:03:18;18.20;78.80
78876;DHT22;68253;52.506;5.486;2023-09-18T00:05:48;18.30;78.70
78876;DHT22;68253;52.506;5.486;2023-09-18T00:08:15;18.30;78.70
78876;DHT22;68253;52.506;5.486;2023-09-18T00:10:42;18.30;78.70
78876;DHT22;68253;52.506;5.486;2023-09-18T00:13:08;18.40;78.70
78876;DHT22;68253;52.506;5.486;2023-09-18T00:15:35;18.40;78.60
78876;DHT22;68253;52.506;5.486;2023-09-18T00:18:01;18.40;78.60
78876;DHT22;68253;52.506;5.486;2023-09-18T00:20:28;18.40;78.60
78876;DHT22;68253;52.506;5.486;2023-09-18T00:22:55;18.40;78.60
78876;DHT22;68253;52.506;5.486;2023-09-18T00:25:22;18.40;78.60
78876;DHT22;68253;52.506;5.486;2023-09-18T00:27:48;18.40;78.60
78876;DHT22;68253;52.506;5.486;2023-09-18T00:30:14;18.40;78.50
78876;DHT22;68253;52.506;5.486;2023-09-18T00:32:41;18.40;78.60
78876;DHT22;68253;52.506;5.486;2023-09-18T00:35:07;18.50;78.50
78876;DHT22;68253;52.506;5.486;2023-09-18T00:37:33;18.40;78.50
78876;DHT22;68253;52.506;5.486;2023-09-18T00:40:00;18.40;78.40
78876;DHT22;68253;52.506;5.486;2023-09-18T00:42:26;18.50;78.40
78876;DHT22;68253;52.506;5.486;2023-09-18T00:44:53;18.50;78.40
78876;DHT22;68253;52.506;5.486;2023-09-18T00:47:19;18.50;78.30
78876;DHT22;68253;52.506;5.486;2023-09-18T00:49:48;18.50;78.30
78876;DHT22;68253;52.506;5.486;2023-09-18T00:52:15;18.50;78.30
78876;DHT22;68253;52.506;5.486;2023-09-18T00:54:43;18.50;78.30
78876;DHT22;68253;52.506;5.486;2023-09-18T00:57:09;18.50;78.30
78876;DHT22;68253;52.506;5.486;2023-09-18T00:59:39;18.50;78.20
78876;DHT22;68253;52.506;5.486;2023-09-18T01:02:06;18.50;78.20
78876;DHT22;68253;52.506;5.486;2023-09-18T01:04:33;18.50;78.20
78876;DHT22;68253;52.506;5.486;2023-09-18T01:07:02;18.50;78.20
78876;DHT22;68253;52.506;5.486;2023-09-18T01:09:32;18.40;78.20
78876;DHT22;68253;52.506;5.486;2023-09-18T01:12:05;18.50;78.20
78876;DHT22;68253;52.506;5.486;2023-09-18T01:17:04;18.40;78.20
78876;DHT22;68253;52.506;5.486;2023-09-18T01:19:42;18.40;78.20
78876;DHT22;68253;52.506;5.486;2023-09-18T01:22:13;18.40;78.20
78876;DHT22;68253;52.506;5.486;2023-09-18T01:24:40;18.40;78.20
78876;DHT22;68253;52.506;5.486;2023-09-18T01:27:10;18.40;78.20
78876;DHT22;68253;52.506;5.486;2023-09-18T01:29:37;18.40;78.20
78876;DHT22;68253;52.506;5.486;2023-09-18T01:32:03;18.50;78.20
78876;DHT22;68253;52.506;5.486;2023-09-18T01:34:32;18.50;78.20
78876;DHT22;68253;52.506;5.486;2023-09-18T01:37:00;18.50;78.10
78876;DHT22;68253;52.506;5.486;2023-09-18T01:39:28;18.50;78.10
78876;DHT22;68253;52.506;5.486;2023-09-18T01:42:04;18.50;78.20
78876;DHT22;68253;52.506;5.486;2023-09-18T01:44:36;18.50;78.10
78876;DHT22;68253;52.506;5.486;2023-09-18T01:47:11;18.50;78.10
78876;DHT22;68253;52.506;5.486;2023-09-18T01:49:39;18.60;78.10
78876;DHT22;68253;52.506;5.486;2023-09-18T01:52:07;18.60;78.00
78876;DHT22;68253;52.506;5.486;2023-09-18T01:54:34;18.60;78.00
78876;DHT22;68253;52.506;5.486;2023-09-18T01:57:01;18.60;78.10
78876;DHT22;68253;52.506;5.486;2023-09-18T01:59:28;18.60;78.00
78876;DHT22;68253;52.506;5.486;2023-09-18T02:01:55;18.60;78.00
78876;DHT22;68253;52.506;5.486;2023-09-18T02:04:22;18.60;78.00
78876;DHT22;68253;52.506;5.486;2023-09-18T02:06:50;18.60;78.00
78876;DHT22;68253;52.506;5.486;2023-09-18T02:09:17;18.60;78.00
78876;DHT22;68253;52.506;5.486;2023-09-18T02:11:45;18.60;78.00
78876;DHT22;68253;52.506;5.486;2023-09-18T02:14:12;18.60;78.00
78876;DHT22;68253;52.506;5.486;2023-09-18T02:16:40;18.60;78.00
78876;DHT22;68253;52.506;5.486;2023-09-18T02:19:07;18.60;78.00
78876;DHT22;68253;52.506;5.486;2023-09-18T02:21:35;18.60;78.00
78876;DHT22;68253;52.506;5.486;2023-09-18T02:24:01;18.60;77.90
78876;DHT22;68253;52.506;5.486;2023-09-18T02:26:28;18.60;77.90
78876;DHT22;68253;52.506;5.486;2023-09-18T02:28:57;18.60;78.00
78876;DHT22;68253;52.506;5.486;2023-09-18T02:31:23;18.60;78.00
78876;DHT22;68253;52.506;5.486;2023-09-18T02:33:49;18.60;77.90
78876;DHT22;68253;52.506;5.486;2023-09-18T02:36:15;18.50;78.00
78876;DHT22;68253;52.506;5.486;2023-09-18T02:38:42;18.50;78.10
78876;DHT22;68253;52.506;5.486;2023-09-18T02:41:09;18.50;78.00
78876;DHT22;68253;52.506;5.486;2023-09-18T02:43:35;18.50;78.00
78876;DHT22;68253;52.506;5.486;2023-09-18T02:46:04;18.50;78.10
78876;DHT22;68253;52.506;5.486;2023-09-18T02:48:33;18.50;78.10
78876;DHT22;68253;52.506;5.486;2023-09-18T02:51:00;18.50;78.10
78876;DHT22;68253;52.506;5.486;2023-09-18T02:53:27;18.60;78.10
78876;DHT22;68253;52.506;5.486;2023-09-18T02:55:57;18.60;78.10
78876;DHT22;68253;52.506;5.486;2023-09-18T02:58:23;18.60;78.10
78876;DHT22;68253;52.506;5.486;2023-09-18T03:00:52;18.60;78.10
78876;DHT22;68253;52.506;5.486;2023-09-18T03:03:19;18.60;78.10
78876;DHT22;68253;52.506;5.486;2023-09-18T03:05:46;18.60;78.10
78876;DHT22;68253;52.506;5.486;2023-09-18T03:08:13;18.60;78.10
78876;DHT22;68253;52.506;5.486;2023-09-18T03:10:40;18.70;78.10
78876;DHT22;68253;52.506;5.486;2023-09-18T03:13:09;18.60;78.20
78876;DHT22;68253;52.506;5.486;2023-09-18T03:15:35;18.70;78.20
78876;DHT22;68253;52.506;5.486;2023-09-18T03:18:03;18.70;78.20
78876;DHT22;68253;52.506;5.486;2023-09-18T03:20:30;18.70;78.20
78876;DHT22;68253;52.506;5.486;2023-09-18T03:22:59;18.70;78.20
78876;DHT22;68253;52.506;5.486;2023-09-18T03:25:25;18.70;78.20
78876;DHT22;68253;52.506;5.486;2023-09-18T03:27:53;18.70;78.20
78876;DHT22;68253;52.506;5.486;2023-09-18T03:30:21;18.70;78.10
78876;DHT22;68253;52.506;5.486;2023-09-18T03:32:50;18.70;78.10
78876;DHT22;68253;52.506;5.486;2023-09-18T03:35:18;18.70;78.10
78876;DHT22;68253;52.506;5.486;2023-09-18T03:37:50;18.70;78.10
78876;DHT22;68253;52.506;5.486;2023-09-18T03:40:18;18.70;78.00
78876;DHT22;68253;52.506;5.486;2023-09-18T03:42:45;18.70;78.10
78876;DHT22;68253;52.506;5.486;2023-09-18T03:45:11;18.80;78.00
78876;DHT22;68253;52.506;5.486;2023-09-18T03:47:39;18.80;78.00
78876;DHT22;68253;52.506;5.486;2023-09-18T03:50:10;18.70;78.00
78876;DHT22;68253;52.506;5.486;2023-09-18T03:52:38;18.70;78.00
78876;DHT22;68253;52.506;5.486;2023-09-18T03:55:05;18.70;78.00
78876;DHT22;68253;52.506;5.486;2023-09-18T03:57:31;18.70;78.00
78876;DHT22;68253;52.506;5.486;2023-09-18T03:59:58;18.70;78.00
78876;DHT22;68253;52.506;5.486;2023-09-18T04:02:25;18.70;78.00
78876;DHT22;68253;52.506;5.486;2023-09-18T04:04:53;18.70;77.90
78876;DHT22;68253;52.506;5.486;2023-09-18T04:07:20;18.70;78.00
78876;DHT22;68253;52.506;5.486;2023-09-18T04:09:46;18.70;78.00
78876;DHT22;68253;52.506;5.486;2023-09-18T04:12:13;18.70;78.00
78876;DHT22;68253;52.506;5.486;2023-09-18T04:14:39;18.70;78.00
78876;DHT22;68253;52.506;5.486;2023-09-18T04:17:05;18.70;78.00
78876;DHT22;68253;52.506;5.486;2023-09-18T04:19:31;18.70;78.00
78876;DHT22;68253;52.506;5.486;2023-09-18T04:21:58;18.70;78.00
78876;DHT22;68253;52.506;5.486;2023-09-18T04:24:25;18.70;78.00
78876;DHT22;68253;52.506;5.486;2023-09-18T04:26:51;18.70;78.00
78876;DHT22;68253;52.506;5.486;2023-09-18T04:29:18;18.70;78.10
78876;DHT22;68253;52.506;5.486;2023-09-18T04:31:45;18.70;78.10
78876;DHT22;68253;52.506;5.486;2023-09-18T04:34:11;18.80;78.10
78876;DHT22;68253;52.506;5.486;2023-09-18T04:36:38;18.80;78.10
78876;DHT22;68253;52.506;5.486;2023-09-18T04:39:05;18.80;78.10
78876;DHT22;68253;52.506;5.486;2023-09-18T04:41:33;18.80;78.20
78876;DHT22;68253;52.506;5.486;2023-09-18T04:44:00;18.80;78.20
78876;DHT22;68253;52.506;5.486;2023-09-18T04:46:26;18.80;78.20
78876;DHT22;68253;52.506;5.486;2023-09-18T04:48:53;18.80;78.20
78876;DHT22;68253;52.506;5.486;2023-09-18T04:51:19;18.80;78.20
78876;DHT22;68253;52.506;5.486;2023-09-18T04:53:45;18.80;78.20
78876;DHT22;68253;52.506;5.486;2023-09-18T04:56:11;18.90;78.30
78876;DHT22;68253;52.506;5.486;2023-09-18T04:58:37;18.90;78.30
78876;DHT22;68253;52.506;5.486;2023-09-18T05:01:04;18.90;78.50
78876;DHT22;68253;52.506;5.486;2023-09-18T05:03:36;18.90;78.60
78876;DHT22;68253;52.506;5.486;2023-09-18T05:06:03;18.90;78.70
78876;DHT22;68253;52.506;5.486;2023-09-18T05:08:30;19.00;78.90
78876;DHT22;68253;52.506;5.486;2023-09-18T05:10:57;19.00;79.20
78876;DHT22;68253;52.506;5.486;2023-09-18T05:13:26;19.10;79.30
78876;DHT22;68253;52.506;5.486;2023-09-18T05:15:52;19.10;79.20
78876;DHT22;68253;52.506;5.486;2023-09-18T05:18:18;19.20;79.10
78876;DHT22;68253;52.506;5.486;2023-09-18T05:20:45;19.10;79.00
78876;DHT22;68253;52.506;5.486;2023-09-18T05:23:11;19.20;78.90
78876;DHT22;68253;52.506;5.486;2023-09-18T05:25:37;19.10;78.60
78876;DHT22;68253;52.506;5.486;2023-09-18T05:28:04;19.20;78.40
78876;DHT22;68253;52.506;5.486;2023-09-18T05:30:33;19.20;78.30
78876;DHT22;68253;52.506;5.486;2023-09-18T05:33:05;19.10;78.20
78876;DHT22;68253;52.506;5.486;2023-09-18T05:35:36;19.10;78.10
78876;DHT22;68253;52.506;5.486;2023-09-18T05:38:03;19.10;78.00
78876;DHT22;68253;52.506;5.486;2023-09-18T05:40:29;19.10;77.90
78876;DHT22;68253;52.506;5.486;2023-09-18T05:42:56;19.10;77.90
78876;DHT22;68253;52.506;5.486;2023-09-18T05:45:23;19.10;78.00
78876;DHT22;68253;52.506;5.486;2023-09-18T05:47:50;19.10;78.20
78876;DHT22;68253;52.506;5.486;2023-09-18T05:50:16;19.00;78.60
78876;DHT22;68253;52.506;5.486;2023-09-18T05:52:46;19.00;78.70
78876;DHT22;68253;52.506;5.486;2023-09-18T05:55:14;18.90;78.90
78876;DHT22;68253;52.506;5.486;2023-09-18T05:57:40;18.90;79.00
78876;DHT22;68253;52.506;5.486;2023-09-18T06:00:07;18.80;79.10
78876;DHT22;68253;52.506;5.486;2023-09-18T06:02:40;18.90;79.20
78876;DHT22;68253;52.506;5.486;2023-09-18T06:05:07;18.80;79.20
78876;DHT22;68253;52.506;5.486;2023-09-18T06:07:33;18.80;79.30
78876;DHT22;68253;52.506;5.486;2023-09-18T06:09:59;18.80;79.30
78876;DHT22;68253;52.506;5.486;2023-09-18T06:12:25;18.80;79.30
78876;DHT22;68253;52.506;5.486;2023-09-18T06:14:52;18.80;79.40
78876;DHT22;68253;52.506;5.486;2023-09-18T06:17:18;18.80;79.40
78876;DHT22;68253;52.506;5.486;2023-09-18T06:19:45;18.80;79.50
78876;DHT22;68253;52.506;5.486;2023-09-18T06:22:12;18.90;79.50
78876;DHT22;68253;52.506;5.486;2023-09-18T06:24:38;18.90;79.50
78876;DHT22;68253;52.506;5.486;2023-09-18T06:27:05;18.90;79.60
78876;DHT22;68253;52.506;5.486;2023-09-18T06:29:32;18.90;79.60
78876;DHT22;68253;52.506;5.486;2023-09-18T06:31:58;18.90;79.60
78876;DHT22;68253;52.506;5.486;2023-09-18T06:34:25;18.90;79.60
78876;DHT22;68253;52.506;5.486;2023-09-18T06:36:51;18.90;79.60
78876;DHT22;68253;52.506;5.486;2023-09-18T06:39:17;18.90;79.60
78876;DHT22;68253;52.506;5.486;2023-09-18T06:41:43;18.90;79.60
78876;DHT22;68253;52.506;5.486;2023-09-18T06:44:12;18.90;79.60
78876;DHT22;68253;52.506;5.486;2023-09-18T06:46:38;18.90;79.60
78876;DHT22;68253;52.506;5.486;2023-09-18T06:49:05;18.90;79.60
78876;DHT22;68253;52.506;5.486;2023-09-18T06:51:31;18.90;79.60
78876;DHT22;68253;52.506;5.486;2023-09-18T06:53:57;18.90;79.60
78876;DHT22;68253;52.506;5.486;2023-09-18T06:56:24;18.90;79.60
78876;DHT22;68253;52.506;5.486;2023-09-18T06:58:51;19.00;79.60
78876;DHT22;68253;52.506;5.486;2023-09-18T07:01:21;19.00;79.60
78876;DHT22;68253;52.506;5.486;2023-09-18T07:03:47;19.00;79.60
78876;DHT22;68253;52.506;5.486;2023-09-18T07:06:14;19.00;79.60
78876;DHT22;68253;52.506;5.486;2023-09-18T07:08:47;19.00;79.60
78876;DHT22;68253;52.506;5.486;2023-09-18T07:11:16;19.00;79.60
78876;DHT22;68253;52.506;5.486;2023-09-18T07:13:43;19.00;79.60
78876;DHT22;68253;52.506;5.486;2023-09-18T07:16:10;19.00;79.60
78876;DHT22;68253;52.506;5.486;2023-09-18T07:18:37;19.00;79.60
78876;DHT22;68253;52.506;5.486;2023-09-18T07:21:03;19.10;79.60
78876;DHT22;68253;52.506;5.486;2023-09-18T07:23:29;19.10;79.60
78876;DHT22;68253;52.506;5.486;2023-09-18T07:25:55;19.10;79.60
78876;DHT22;68253;52.506;5.486;2023-09-18T07:28:26;19.20;79.60
78876;DHT22;68253;52.506;5.486;2023-09-18T07:30:52;19.20;79.60
78876;DHT22;68253;52.506;5.486;2023-09-18T07:33:19;19.20;79.60
78876;DHT22;68253;52.506;5.486;2023-09-18T07:35:47;19.30;79.60
78876;DHT22;68253;52.506;5.486;2023-09-18T07:38:14;19.30;79.60
78876;DHT22;68253;52.506;5.486;2023-09-18T07:40:40;19.30;79.50
78876;DHT22;68253;52.506;5.486;2023-09-18T07:43:06;19.40;79.50
78876;DHT22;68253;52.506;5.486;2023-09-18T07:45:34;19.40;79.50
78876;DHT22;68253;52.506;5.486;2023-09-18T07:48:00;19.40;79.50
78876;DHT22;68253;52.506;5.486;2023-09-18T07:50:26;19.50;79.50
78876;DHT22;68253;52.506;5.486;2023-09-18T07:52:52;19.50;79.50
78876;DHT22;68253;52.506;5.486;2023-09-18T07:55:19;19.50;79.50
78876;DHT22;68253;52.506;5.486;2023-09-18T07:57:45;19.60;79.40
78876;DHT22;68253;52.506;5.486;2023-09-18T08:00:12;19.70;79.30
78876;DHT22;68253;52.506;5.486;2023-09-18T08:02:39;19.70;79.10
78876;DHT22;68253;52.506;5.486;2023-09-18T08:05:06;19.70;79.10
78876;DHT22;68253;52.506;5.486;2023-09-18T08:07:35;19.70;79.00
78876;DHT22;68253;52.506;5.486;2023-09-18T08:10:03;19.70;79.00
78876;DHT22;68253;52.506;5.486;2023-09-18T08:12:32;19.70;79.10
78876;DHT22;68253;52.506;5.486;2023-09-18T08:14:58;19.80;79.00
78876;DHT22;68253;52.506;5.486;2023-09-18T08:17:25;19.90;79.00
78876;DHT22;68253;52.506;5.486;2023-09-18T08:19:52;19.90;78.80
78876;DHT22;68253;52.506;5.486;2023-09-18T08:22:19;20.00;78.70
78876;DHT22;68253;52.506;5.486;2023-09-18T08:24:49;20.00;78.70
78876;DHT22;68253;52.506;5.486;2023-09-18T08:27:18;20.00;78.50
78876;DHT22;68253;52.506;5.486;2023-09-18T08:29:45;20.10;78.50
78876;DHT22;68253;52.506;5.486;2023-09-18T08:32:11;20.20;78.00
78876;DHT22;68253;52.506;5.486;2023-09-18T08:34:38;20.20;77.60
78876;DHT22;68253;52.506;5.486;2023-09-18T08:37:07;20.30;77.50
78876;DHT22;68253;52.506;5.486;2023-09-18T08:39:35;20.30;77.50
78876;DHT22;68253;52.506;5.486;2023-09-18T08:42:04;20.40;77.30
78876;DHT22;68253;52.506;5.486;2023-09-18T08:44:31;20.40;77.00
78876;DHT22;68253;52.506;5.486;2023-09-18T08:46:57;20.50;76.60
78876;DHT22;68253;52.506;5.486;2023-09-18T08:49:24;20.50;76.50
78876;DHT22;68253;52.506;5.486;2023-09-18T08:51:54;20.60;77.30
78876;DHT22;68253;52.506;5.486;2023-09-18T08:54:22;21.00;76.60
78876;DHT22;68253;52.506;5.486;2023-09-18T08:56:51;21.10;76.00
78876;DHT22;68253;52.506;5.486;2023-09-18T08:59:18;21.40;75.00
78876;DHT22;68253;52.506;5.486;2023-09-18T09:01:45;21.50;74.70
78876;DHT22;68253;52.506;5.486;2023-09-18T09:04:12;21.70;74.20
78876;DHT22;68253;52.506;5.486;2023-09-18T09:06:38;21.90;74.30
78876;DHT22;68253;52.506;5.486;2023-09-18T09:09:04;22.00;73.80
78876;DHT22;68253;52.506;5.486;2023-09-18T09:11:30;22.20;73.10
78876;DHT22;68253;52.506;5.486;2023-09-18T09:14:10;22.30;72.90
78876;DHT22;68253;52.506;5.486;2023-09-18T09:16:39;22.60;72.40
78876;DHT22;68253;52.506;5.486;2023-09-18T09:19:06;22.70;71.20
78876;DHT22;68253;52.506;5.486;2023-09-18T09:21:42;22.80;70.80
78876;DHT22;68253;52.506;5.486;2023-09-18T09:24:13;22.70;70.60
78876;DHT22;68253;52.506;5.486;2023-09-18T09:26:40;22.80;70.60
78876;DHT22;68253;52.506;5.486;2023-09-18T09:29:18;23.00;70.30
78876;DHT22;68253;52.506;5.486;2023-09-18T09:31:45;23.20;69.80
78876;DHT22;68253;52.506;5.486;2023-09-18T09:34:12;23.50;69.70
78876;DHT22;68253;52.506;5.486;2023-09-18T09:36:56;23.60;68.80
78876;DHT22;68253;52.506;5.486;2023-09-18T09:39:23;23.90;67.80
78876;DHT22;68253;52.506;5.486;2023-09-18T09:41:53;23.80;67.50
78876;DHT22;68253;52.506;5.486;2023-09-18T09:44:20;23.60;67.50
78876;DHT22;68253;52.506;5.486;2023-09-18T09:46:50;23.40;67.70
78876;DHT22;68253;52.506;5.486;2023-09-18T09:49:17;23.20;67.20
78876;DHT22;68253;52.506;5.486;2023-09-18T09:51:46;22.80;68.20
78876;DHT22;68253;52.506;5.486;2023-09-18T09:54:12;22.50;68.60
78876;DHT22;68253;52.506;5.486;2023-09-18T09:56:44;22.30;68.90
78876;DHT22;68253;52.506;5.486;2023-09-18T09:59:11;22.10;69.40
78876;DHT22;68253;52.506;5.486;2023-09-18T10:01:38;21.90;69.80
78876;DHT22;68253;52.506;5.486;2023-09-18T10:04:09;21.70;69.70
78876;DHT22;68253;52.506;5.486;2023-09-18T10:06:37;21.50;70.30
78876;DHT22;68253;52.506;5.486;2023-09-18T10:09:04;21.40;70.60
78876;DHT22;68253;52.506;5.486;2023-09-18T10:11:43;21.40;70.40
78876;DHT22;68253;52.506;5.486;2023-09-18T10:14:18;21.30;70.50
78876;DHT22;68253;52.506;5.486;2023-09-18T10:16:52;21.20;70.80
78876;DHT22;68253;52.506;5.486;2023-09-18T10:19:28;21.30;70.80
78876;DHT22;68253;52.506;5.486;2023-09-18T10:22:24;21.40;71.10
78876;DHT22;68253;52.506;5.486;2023-09-18T10:25:03;21.50;70.90
78876;DHT22;68253;52.506;5.486;2023-09-18T10:27:33;21.70;70.80
78876;DHT22;68253;52.506;5.486;2023-09-18T10:30:01;21.90;69.70
78876;DHT22;68253;52.506;5.486;2023-09-18T10:32:31;22.00;68.80
78876;DHT22;68253;52.506;5.486;2023-09-18T10:34:58;22.00;68.60
78876;DHT22;68253;52.506;5.486;2023-09-18T10:37:31;22.00;69.00
78876;DHT22;68253;52.506;5.486;2023-09-18T10:39:59;22.10;68.30
78876;DHT22;68253;52.506;5.486;2023-09-18T10:42:27;22.20;68.10
78876;DHT22;68253;52.506;5.486;2023-09-18T10:44:54;22.30;68.00
78876;DHT22;68253;52.506;5.486;2023-09-18T10:47:21;22.50;67.80
78876;DHT22;68253;52.506;5.486;2023-09-18T10:49:48;22.70;67.90
78876;DHT22;68253;52.506;5.486;2023-09-18T10:52:16;23.10;67.70
78876;DHT22;68253;52.506;5.486;2023-09-18T10:54:42;23.50;67.00
78876;DHT22;68253;52.506;5.486;2023-09-18T10:57:10;24.00;65.00
78876;DHT22;68253;52.506;5.486;2023-09-18T10:59:46;24.30;63.90
78876;DHT22;68253;52.506;5.486;2023-09-18T11:02:16;24.60;63.90
78876;DHT22;68253;52.506;5.486;2023-09-18T11:04:44;24.70;62.10
78876;DHT22;68253;52.506;5.486;2023-09-18T11:07:21;24.80;61.90
78876;DHT22;68253;52.506;5.486;2023-09-18T11:09:48;25.00;62.20
78876;DHT22;68253;52.506;5.486;2023-09-18T11:12:16;25.30;61.70
78876;DHT22;68253;52.506;5.486;2023-09-18T11:14:46;25.40;61.10
78876;DHT22;68253;52.506;5.486;2023-09-18T11:17:54;25.40;60.80
78876;DHT22;68253;52.506;5.486;2023-09-18T11:20:24;25.60;60.40
78876;DHT22;68253;52.506;5.486;2023-09-18T11:23:01;25.60;61.10
78876;DHT22;68253;52.506;5.486;2023-09-18T11:25:42;25.80;60.00
78876;DHT22;68253;52.506;5.486;2023-09-18T11:28:28;25.80;60.50
78876;DHT22;68253;52.506;5.486;2023-09-18T11:30:56;25.90;60.00
78876;DHT22;68253;52.506;5.486;2023-09-18T11:33:37;26.00;60.00
78876;DHT22;68253;52.506;5.486;2023-09-18T11:36:12;26.00;59.40
78876;DHT22;68253;52.506;5.486;2023-09-18T11:38:57;26.00;59.80
78876;DHT22;68253;52.506;5.486;2023-09-18T11:41:33;25.80;59.70
78876;DHT22;68253;52.506;5.486;2023-09-18T11:46:46;25.60;59.50
78876;DHT22;68253;52.506;5.486;2023-09-18T11:49:15;25.60;59.70
78876;DHT22;68253;52.506;5.486;2023-09-18T11:51:46;25.50;58.80
78876;DHT22;68253;52.506;5.486;2023-09-18T11:54:13;25.60;59.30
78876;DHT22;68253;52.506;5.486;2023-09-18T11:56:40;25.60;59.50
78876;DHT22;68253;52.506;5.486;2023-09-18T11:59:06;25.80;58.70
78876;DHT22;68253;52.506;5.486;2023-09-18T12:01:32;26.00;58.70
78876;DHT22;68253;52.506;5.486;2023-09-18T12:04:03;26.00;57.50
78876;DHT22;68253;52.506;5.486;2023-09-18T12:06:36;26.00;58.10
78876;DHT22;68253;52.506;5.486;2023-09-18T12:09:05;25.90;58.20
78876;DHT22;68253;52.506;5.486;2023-09-18T12:11:32;25.70;58.80
78876;DHT22;68253;52.506;5.486;2023-09-18T12:14:01;25.60;59.40
78876;DHT22;68253;52.506;5.486;2023-09-18T12:16:30;25.60;59.80
78876;DHT22;68253;52.506;5.486;2023-09-18T12:18:56;25.50;58.80
78876;DHT22;68253;52.506;5.486;2023-09-18T12:21:23;25.50;59.50
78876;DHT22;68253;52.506;5.486;2023-09-18T12:23:49;25.70;59.60
78876;DHT22;68253;52.506;5.486;2023-09-18T12:26:16;26.00;58.90
78876;DHT22;68253;52.506;5.486;2023-09-18T12:28:46;26.10;57.60
78876;DHT22;68253;52.506;5.486;2023-09-18T12:31:16;26.30;57.00
78876;DHT22;68253;52.506;5.486;2023-09-18T12:33:43;26.40;56.80
78876;DHT22;68253;52.506;5.486;2023-09-18T12:36:18;26.20;56.80
78876;DHT22;68253;52.506;5.486;2023-09-18T12:38:55;26.00;57.60
78876;DHT22;68253;52.506;5.486;2023-09-18T12:41:23;26.10;58.30
78876;DHT22;68253;52.506;5.486;2023-09-18T12:43:50;26.40;58.30
78876;DHT22;68253;52.506;5.486;2023-09-18T12:46:17;26.60;57.50
78876;DHT22;68253;52.506;5.486;2023-09-18T12:48:45;26.80;56.40
78876;DHT22;68253;52.506;5.486;2023-09-18T12:51:12;26.70;56.50
78876;DHT22;68253;52.506;5.486;2023-09-18T12:53:39;26.40;56.90
78876;DHT22;68253;52.506;5.486;2023-09-18T12:56:08;25.90;57.20
78876;DHT22;68253;52.506;5.486;2023-09-18T12:58:34;25.40;57.80
78876;DHT22;68253;52.506;5.486;2023-09-18T13:01:05;25.00;58.70
78876;DHT22;68253;52.506;5.486;2023-09-18T13:03:44;24.80;59.30
78876;DHT22;68253;52.506;5.486;2023-09-18T13:06:17;24.50;59.50
78876;DHT22;68253;52.506;5.486;2023-09-18T13:08:44;24.20;59.90
78876;DHT22;68253;52.506;5.486;2023-09-18T13:11:10;24.00;60.50
78876;DHT22;68253;52.506;5.486;2023-09-18T13:13:38;24.00;61.10
78876;DHT22;68253;52.506;5.486;2023-09-18T13:16:08;24.00;61.20
78876;DHT22;68253;52.506;5.486;2023-09-18T13:18:35;24.00;60.80
78876;DHT22;68253;52.506;5.486;2023-09-18T13:21:12;23.90;61.10
78876;DHT22;68253;52.506;5.486;2023-09-18T13:23:38;24.10;61.00
78876;DHT22;68253;52.506;5.486;2023-09-18T13:26:06;24.30;59.70
78876;DHT22;68253;52.506;5.486;2023-09-18T13:28:34;24.50;59.80
78876;DHT22;68253;52.506;5.486;2023-09-18T13:31:03;24.80;59.80
78876;DHT22;68253;52.506;5.486;2023-09-18T13:33:33;25.00;59.70
78876;DHT22;68253;52.506;5.486;2023-09-18T13:36:03;25.40;59.30
78876;DHT22;68253;52.506;5.486;2023-09-18T13:38:30;25.50;59.00
78876;DHT22;68253;52.506;5.486;2023-09-18T13:40:56;25.60;59.00
78876;DHT22;68253;52.506;5.486;2023-09-18T13:43:23;25.80;58.60
78876;DHT22;68253;52.506;5.486;2023-09-18T13:45:49;25.60;58.30
78876;DHT22;68253;52.506;5.486;2023-09-18T13:48:18;25.50;58.60
78876;DHT22;68253;52.506;5.486;2023-09-18T13:50:45;25.30;58.50
78876;DHT22;68253;52.506;5.486;2023-09-18T13:53:12;25.10;58.40
78876;DHT22;68253;52.506;5.486;2023-09-18T13:55:39;25.00;58.50
78876;DHT22;68253;52.506;5.486;2023-09-18T13:58:05;25.00;58.20
78876;DHT22;68253;52.506;5.486;2023-09-18T14:00:32;25.00;58.60
78876;DHT22;68253;52.506;5.486;2023-09-18T14:02:59;25.00;58.10
78876;DHT22;68253;52.506;5.486;2023-09-18T14:05:25;25.10;57.70
78876;DHT22;68253;52.506;5.486;2023-09-18T14:07:53;25.20;58.20
78876;DHT22;68253;52.506;5.486;2023-09-18T14:10:26;25.30;58.20
78876;DHT22;68253;52.506;5.486;2023-09-18T14:12:52;25.40;57.30
78876;DHT22;68253;52.506;5.486;2023-09-18T14:15:19;25.50;57.50
78876;DHT22;68253;52.506;5.486;2023-09-18T14:17:45;25.60;57.80
78876;DHT22;68253;52.506;5.486;2023-09-18T14:20:11;25.60;58.10
78876;DHT22;68253;52.506;5.486;2023-09-18T14:22:37;25.80;57.50
78876;DHT22;68253;52.506;5.486;2023-09-18T14:25:04;25.80;57.10
78876;DHT22;68253;52.506;5.486;2023-09-18T14:27:32;25.70;57.40
78876;DHT22;68253;52.506;5.486;2023-09-18T14:29:58;25.60;57.70
78876;DHT22;68253;52.506;5.486;2023-09-18T14:32:24;25.50;57.10
78876;DHT22;68253;52.506;5.486;2023-09-18T14:34:50;25.30;57.50
78876;DHT22;68253;52.506;5.486;2023-09-18T14:37:16;25.20;58.00
78876;DHT22;68253;52.506;5.486;2023-09-18T14:39:43;25.10;58.30
78876;DHT22;68253;52.506;5.486;2023-09-18T14:42:09;25.20;58.20
78876;DHT22;68253;52.506;5.486;2023-09-18T14:44:35;25.20;58.00
78876;DHT22;68253;52.506;5.486;2023-09-18T14:47:05;25.00;57.60
78876;DHT22;68253;52.506;5.486;2023-09-18T14:49:32;24.70;57.80
78876;DHT22;68253;52.506;5.486;2023-09-18T14:51:58;24.40;58.60
78876;DHT22;68253;52.506;5.486;2023-09-18T14:54:24;24.20;59.40
78876;DHT22;68253;52.506;5.486;2023-09-18T14:56:50;24.00;60.00
78876;DHT22;68253;52.506;5.486;2023-09-18T14:59:16;23.90;60.40
78876;DHT22;68253;52.506;5.486;2023-09-18T15:01:43;23.60;60.70
78876;DHT22;68253;52.506;5.486;2023-09-18T15:04:09;23.50;60.90
78876;DHT22;68253;52.506;5.486;2023-09-18T15:06:36;23.40;61.20
78876;DHT22;68253;52.506;5.486;2023-09-18T15:09:02;23.30;61.20
78876;DHT22;68253;52.506;5.486;2023-09-18T15:11:29;23.20;61.10
78876;DHT22;68253;52.506;5.486;2023-09-18T15:13:55;23.00;61.20
78876;DHT22;68253;52.506;5.486;2023-09-18T15:16:21;22.90;61.30
78876;DHT22;68253;52.506;5.486;2023-09-18T15:18:47;22.80;62.70
78876;DHT22;68253;52.506;5.486;2023-09-18T15:21:14;22.60;64.00
78876;DHT22;68253;52.506;5.486;2023-09-18T15:23:40;22.50;65.00
78876;DHT22;68253;52.506;5.486;2023-09-18T15:26:06;22.20;66.40
78876;DHT22;68253;52.506;5.486;2023-09-18T15:28:33;21.90;66.80
78876;DHT22;68253;52.506;5.486;2023-09-18T15:31:00;21.70;67.10
78876;DHT22;68253;52.506;5.486;2023-09-18T15:33:26;21.50;67.60
78876;DHT22;68253;52.506;5.486;2023-09-18T15:35:52;21.40;68.60
78876;DHT22;68253;52.506;5.486;2023-09-18T15:38:19;21.20;69.10
78876;DHT22;68253;52.506;5.486;2023-09-18T15:40:47;21.10;69.40